Time;durP1;ratioP1;P1;durP2;ratioP2;P2;SDS_P1;SDS_P2;PMS_P1;PMS_P2;Temp;Humidity;BMP_temperature;BMP_pressure;BME280_temperature;BME280_humidity;BME280_pressure;Samples;Min_cycle;Max_cycle;Signal;HPM_P1;HPM_P2
2022/03/29 00:00:50;;;;;;;29.80;19.40;;;6.70;99.90;;;;;;5095225;27;20082;-79
2022/03/29 00:03:16;;;;;;;35.08;21.20;;;6.70;99.90;;;;;;5094955;28;20521;-78
2022/03/29 00:05:42;;;;;;;33.70;21.20;;;6.80;99.90;;;;;;5104411;27;20036;-76
2022/03/29 00:08:08;;;;;;;33.63;21.38;;;6.70;99.90;;;;;;5106309;27;20055;-77
2022/03/29 00:10:33;;;;;;;32.35;20.30;;;7.20;99.90;;;;;;5103580;28;20035;-78
2022/03/29 00:12:59;;;;;;;33.38;19.30;;;6.70;99.90;;;;;;5085550;27;20375;-78
2022/03/29 00:15:28;;;;;;;35.28;19.60;;;6.70;99.90;;;;;;5087168;27;20506;-80
2022/03/29 00:17:54;;;;;;;35.95;19.67;;;6.60;99.90;;;;;;5089005;28;20061;-78
2022/03/29 00:20:20;;;;;;;33.50;20.08;;;7.00;99.90;;;;;;5106823;27;20066;-77
2022/03/29 00:22:47;;;;;;;34.70;20.30;;;6.60;99.90;;;;;;5093889;27;20038;-80
2022/03/29 00:25:14;;;;;;;31.25;19.83;;;6.60;99.90;;;;;;5111202;27;20047;-77
2022/03/29 00:27:40;;;;;;;31.02;20.20;;;6.60;99.90;;;;;;5110308;28;20394;-80
2022/03/29 00:30:07;;;;;;;37.85;20.52;;;6.60;99.90;;;;;;5109431;27;20085;-76
2022/03/29 00:32:34;;;;;;;36.08;21.05;;;6.60;99.90;;;;;;5104680;28;20347;-78
2022/03/29 00:35:00;;;;;;;36.22;20.15;;;6.60;99.90;;;;;;5085356;28;20051;-77
2022/03/29 00:37:26;;;;;;;33.35;19.55;;;6.70;99.90;;;;;;5107829;28;20031;-77
2022/03/29 00:39:51;;;;;;;42.28;19.65;;;6.80;99.90;;;;;;5111775;28;20043;-80
2022/03/29 00:42:17;;;;;;;37.70;21.23;;;6.60;99.90;;;;;;5096603;28;20045;-79
2022/03/29 00:44:43;;;;;;;39.28;21.48;;;6.60;99.90;;;;;;5099344;27;20039;-81
2022/03/29 00:47:09;;;;;;;38.03;19.98;;;6.60;99.90;;;;;;5108515;27;20493;-81
2022/03/29 00:49:35;;;;;;;34.83;19.73;;;6.70;99.90;;;;;;5119276;27;20194;-78
2022/03/29 00:52:03;;;;;;;31.83;19.83;;;6.70;99.90;;;;;;5115903;27;20163;-79
2022/03/29 00:54:38;;;;;;;34.63;19.63;;;6.70;99.90;;;;;;5128688;27;20047;-80
2022/03/29 00:57:05;;;;;;;31.55;18.73;;;6.70;99.90;;;;;;5098848;27;20417;-76
2022/03/29 00:59:31;;;;;;;37.72;20.23;;;6.60;99.90;;;;;;5132016;27;20031;-76
2022/03/29 01:01:57;;;;;;;36.13;19.02;;;6.70;99.90;;;;;;5097248;27;20042;-80
2022/03/29 01:04:23;;;;;;;34.55;19.48;;;6.70;99.90;;;;;;5119635;27;20063;-78
2022/03/29 01:06:50;;;;;;;35.17;20.90;;;6.70;99.90;;;;;;5103405;27;20486;-76
2022/03/29 01:09:16;;;;;;;43.28;21.75;;;6.60;99.90;;;;;;5119167;27;20038;-76
2022/03/29 01:11:42;;;;;;;40.35;21.08;;;6.60;99.90;;;;;;5119437;27;20058;-80
2022/03/29 01:14:08;;;;;;;37.33;20.67;;;6.60;99.90;;;;;;5117627;27;20417;-78
2022/03/29 01:19:25;;;;;;;41.55;22.05;;;6.50;99.90;;;;;;5119622;27;20130;-80
2022/03/29 01:21:58;;;;;;;36.80;22.20;;;6.60;99.90;;;;;;5094483;27;20382;-79
2022/03/29 01:24:25;;;;;;;39.10;22.20;;;6.50;99.90;;;;;;5112771;27;20035;-81
2022/03/29 01:26:53;;;;;;;43.88;23.35;;;6.50;99.90;;;;;;5095153;27;20051;-80
2022/03/29 01:29:20;;;;;;;40.22;22.88;;;6.60;99.90;;;;;;5094917;27;20065;-78
2022/03/29 01:31:49;;;;;;;39.80;23.55;;;6.50;99.90;;;;;;5108569;27;20118;-81
2022/03/29 01:34:16;;;;;;;38.08;22.23;;;6.60;99.90;;;;;;5133899;27;20038;-77
2022/03/29 01:36:41;;;;;;;39.20;21.33;;;6.60;99.90;;;;;;5114018;27;20182;-76
2022/03/29 01:39:07;;;;;;;37.63;21.73;;;6.60;99.90;;;;;;5114293;27;20047;-79
2022/03/29 01:41:33;;;;;;;46.78;21.77;;;6.50;99.90;;;;;;5116367;27;20043;-76
2022/03/29 01:43:59;;;;;;;42.65;22.17;;;6.50;99.90;;;;;;5091474;27;20063;-79
2022/03/29 01:46:25;;;;;;;48.13;22.50;;;6.50;99.90;;;;;;5113164;27;20061;-77
2022/03/29 01:48:51;;;;;;;48.85;22.63;;;6.50;99.90;;;;;;5093984;27;20038;-82
2022/03/29 01:51:17;;;;;;;38.28;22.00;;;6.70;99.90;;;;;;5094184;27;20053;-82
2022/03/29 01:53:45;;;;;;;42.20;22.17;;;6.50;99.90;;;;;;5094281;27;20122;-79
2022/03/29 01:56:11;;;;;;;38.80;21.17;;;6.40;99.90;;;;;;5098579;27;20043;-76
2022/03/29 01:58:37;;;;;;;37.47;21.50;;;6.50;99.90;;;;;;5101012;27;20296;-77
2022/03/29 02:01:03;;;;;;;38.55;22.17;;;6.50;99.90;;;;;;5120652;27;20028;-77
2022/03/29 02:03:29;;;;;;;38.72;22.08;;;6.50;99.90;;;;;;5114745;27;20027;-80
2022/03/29 02:05:54;;;;;;;35.42;21.45;;;6.40;99.90;;;;;;5103223;27;20061;-78
2022/03/29 02:08:20;;;;;;;39.83;21.02;;;6.50;99.90;;;;;;5112902;27;20149;-80
2022/03/29 02:10:46;;;;;;;44.63;21.35;;;6.40;99.90;;;;;;5122236;27;20046;-82
2022/03/29 02:13:12;;;;;;;40.67;22.00;;;6.40;99.90;;;;;;5116256;27;20485;-78
2022/03/29 02:15:39;;;;;;;50.65;23.50;;;6.40;99.90;;;;;;5111829;27;20057;-79
2022/03/29 02:18:06;;;;;;;43.42;20.13;;;6.40;99.90;;;;;;5100979;27;20083;-79
2022/03/29 02:20:32;;;;;;;38.25;21.02;;;6.40;99.90;;;;;;5097514;27;20058;-77
2022/03/29 02:23:02;;;;;;;38.13;21.67;;;6.40;99.90;;;;;;5100302;27;20046;-77
2022/03/29 02:25:29;;;;;;;39.55;22.02;;;6.40;99.90;;;;;;5123861;27;20050;-77
2022/03/29 02:27:55;;;;;;;41.88;21.17;;;6.30;99.90;;;;;;5094480;27;20192;-79
2022/03/29 02:30:21;;;;;;;41.20;20.92;;;6.30;99.90;;;;;;5111271;27;20051;-77
2022/03/29 02:32:46;;;;;;;50.88;21.70;;;6.30;99.90;;;;;;5110024;27;20499;-78
2022/03/29 02:35:12;;;;;;;39.35;21.48;;;6.30;99.90;;;;;;5093999;27;20078;-77
2022/03/29 02:37:39;;;;;;;41.28;21.15;;;6.30;99.90;;;;;;5093045;27;20051;-80
2022/03/29 02:40:06;;;;;;;42.75;22.10;;;6.30;99.90;;;;;;5093992;27;20050;-76
2022/03/29 02:42:32;;;;;;;40.90;23.05;;;6.30;99.90;;;;;;5127684;27;20416;-77
2022/03/29 02:44:58;;;;;;;40.47;21.75;;;6.30;99.90;;;;;;5095107;27;20422;-81
2022/03/29 02:47:24;;;;;;;45.58;22.63;;;6.30;99.90;;;;;;5108698;27;20035;-78
2022/03/29 02:49:50;;;;;;;47.38;21.65;;;6.30;99.90;;;;;;5108801;27;20102;-77
2022/03/29 02:52:15;;;;;;;45.00;22.38;;;6.40;99.90;;;;;;5128622;27;20501;-82
2022/03/29 02:54:41;;;;;;;43.53;23.00;;;6.40;99.90;;;;;;5087522;27;20027;-79
2022/03/29 02:57:07;;;;;;;46.03;22.92;;;6.40;99.90;;;;;;5111013;27;20047;-76
2022/03/29 02:59:33;;;;;;;39.95;21.23;;;6.40;99.90;;;;;;5110178;27;20042;-81
2022/03/29 03:01:59;;;;;;;42.55;21.98;;;6.30;99.90;;;;;;5106955;27;20058;-77
2022/03/29 03:04:24;;;;;;;38.60;21.80;;;6.40;99.90;;;;;;5095791;27;20035;-80
2022/03/29 03:06:50;;;;;;;40.58;21.45;;;6.30;99.90;;;;;;5111770;27;20394;-82
2022/03/29 03:09:16;;;;;;;45.17;23.38;;;6.40;99.90;;;;;;5111668;27;20591;-76
2022/03/29 03:11:41;;;;;;;40.85;22.58;;;6.30;99.90;;;;;;5109409;27;20070;-78
2022/03/29 03:14:07;;;;;;;40.45;22.48;;;6.30;99.90;;;;;;5091687;27;20039;-79
2022/03/29 03:16:33;;;;;;;39.30;22.15;;;6.30;99.90;;;;;;5127230;27;20031;-75
2022/03/29 03:18:58;;;;;;;40.28;23.25;;;6.30;99.90;;;;;;5093417;27;20126;-76
2022/03/29 03:21:24;;;;;;;45.50;21.95;;;6.30;99.90;;;;;;5114337;27;20043;-78
2022/03/29 03:23:50;;;;;;;42.75;22.08;;;6.30;99.90;;;;;;5088478;27;20058;-78
2022/03/29 03:26:15;;;;;;;43.33;22.70;;;6.30;99.90;;;;;;5109046;27;20544;-80
2022/03/29 03:28:41;;;;;;;47.30;23.67;;;6.30;99.90;;;;;;5128833;27;20065;-77
2022/03/29 03:31:07;;;;;;;43.80;23.00;;;6.40;99.90;;;;;;5109220;27;20680;-78
2022/03/29 03:33:33;;;;;;;44.28;22.55;;;6.40;99.90;;;;;;5094774;27;20074;-80
2022/03/29 03:35:59;;;;;;;42.90;22.35;;;6.40;99.90;;;;;;5106213;27;20066;-78
2022/03/29 03:38:24;;;;;;;41.75;22.30;;;6.70;99.90;;;;;;5111050;27;20049;-81
2022/03/29 03:40:50;;;;;;;38.30;21.00;;;6.40;99.90;;;;;;5112429;27;20035;-80
2022/03/29 03:43:16;;;;;;;42.13;22.63;;;6.40;99.90;;;;;;5105721;27;20066;-76
2022/03/29 03:45:41;;;;;;;51.30;22.58;;;6.40;99.90;;;;;;5108292;27;20047;-76
2022/03/29 03:48:07;;;;;;;41.17;22.73;;;6.30;99.90;;;;;;5128971;27;20122;-76
2022/03/29 03:50:33;;;;;;;40.08;21.65;;;6.30;99.90;;;;;;5110876;28;20350;-75
2022/03/29 03:53:00;;;;;;;44.15;22.63;;;6.40;99.90;;;;;;5093803;27;20397;-76
2022/03/29 03:55:26;;;;;;;49.40;23.60;;;6.30;99.90;;;;;;5088815;28;20051;-75
2022/03/29 03:57:52;;;;;;;50.63;22.90;;;6.40;99.90;;;;;;5107388;28;20044;-80
2022/03/29 04:00:21;;;;;;;46.25;23.58;;;6.40;99.90;;;;;;5085135;27;20523;-78
2022/03/29 04:02:49;;;;;;;45.88;22.95;;;6.40;99.90;;;;;;5108929;28;20035;-79
2022/03/29 04:05:14;;;;;;;41.55;23.42;;;6.40;99.90;;;;;;5103335;28;20150;-77
2022/03/29 04:07:41;;;;;;;37.95;21.77;;;6.40;99.90;;;;;;5108404;28;20154;-77
2022/03/29 04:10:07;;;;;;;47.22;23.67;;;6.40;99.90;;;;;;5089214;28;20088;-77
2022/03/29 04:12:34;;;;;;;45.65;23.02;;;6.40;99.90;;;;;;5114353;28;20050;-76
2022/03/29 04:15:00;;;;;;;47.30;22.70;;;6.40;99.90;;;;;;5094724;28;20134;-80
2022/03/29 04:17:25;;;;;;;39.38;22.95;;;6.50;99.90;;;;;;5106631;28;20455;-80
2022/03/29 04:19:51;;;;;;;46.28;24.08;;;6.60;99.90;;;;;;5093853;28;20065;-79
2022/03/29 04:22:18;;;;;;;41.08;22.70;;;6.40;99.90;;;;;;5091656;27;20035;-77
2022/03/29 04:24:47;;;;;;;40.55;22.95;;;6.60;99.90;;;;;;5110477;27;20451;-78
2022/03/29 04:27:13;;;;;;;40.70;21.85;;;6.50;99.90;;;;;;5113725;27;20043;-77
2022/03/29 04:29:39;;;;;;;42.13;22.67;;;6.40;99.90;;;;;;5096112;27;20055;-75
2022/03/29 04:32:05;;;;;;;43.65;23.27;;;6.40;99.90;;;;;;5097273;27;20398;-77
2022/03/29 04:34:30;;;;;;;44.90;23.38;;;6.40;99.90;;;;;;5112447;27;20104;-80
2022/03/29 04:36:58;;;;;;;47.65;24.05;;;6.40;99.90;;;;;;5109136;27;20039;-80
2022/03/29 04:39:25;;;;;;;52.55;24.35;;;6.60;99.90;;;;;;5096894;27;20031;-77
2022/03/29 04:41:50;;;;;;;41.80;24.52;;;6.40;99.90;;;;;;5114981;27;20054;-78
2022/03/29 04:44:16;;;;;;;50.10;24.10;;;6.40;99.90;;;;;;5112988;27;20027;-80
2022/03/29 04:46:42;;;;;;;49.25;24.25;;;6.40;99.90;;;;;;5113218;27;20044;-79
2022/03/29 04:49:08;;;;;;;46.03;24.50;;;6.40;99.90;;;;;;5108784;27;20083;-81
2022/03/29 04:51:34;;;;;;;49.97;24.20;;;6.40;99.90;;;;;;5111050;27;20117;-77
2022/03/29 04:54:01;;;;;;;44.25;23.88;;;6.40;99.90;;;;;;5095343;27;20145;-79
2022/03/29 04:56:27;;;;;;;46.38;23.85;;;6.50;99.90;;;;;;5121721;27;20051;-76
2022/03/29 04:58:52;;;;;;;47.28;24.98;;;6.50;99.90;;;;;;5123184;27;20386;-79
2022/03/29 05:01:18;;;;;;;54.75;25.58;;;6.40;99.90;;;;;;5123235;27;20668;-80
2022/03/29 05:03:44;;;;;;;52.92;25.55;;;6.40;99.90;;;;;;5116537;27;20591;-80
2022/03/29 05:06:10;;;;;;;52.05;26.23;;;6.40;99.90;;;;;;5102804;27;20117;-77
2022/03/29 05:08:35;;;;;;;49.33;24.67;;;6.50;99.90;;;;;;5120695;27;20053;-79
2022/03/29 05:11:01;;;;;;;50.65;26.02;;;6.40;99.90;;;;;;5113671;27;20450;-78
2022/03/29 05:13:28;;;;;;;43.15;24.90;;;6.50;99.90;;;;;;5119262;27;20054;-77
2022/03/29 05:15:54;;;;;;;58.50;27.13;;;6.60;99.90;;;;;;5098657;27;20958;-78
2022/03/29 05:18:19;;;;;;;51.72;27.70;;;6.50;99.90;;;;;;5114408;27;20077;-76
2022/03/29 05:20:45;;;;;;;44.50;26.23;;;6.80;99.90;;;;;;5121320;27;20404;-76
2022/03/29 05:23:10;;;;;;;57.13;27.90;;;6.60;99.90;;;;;;5097079;27;20084;-82
2022/03/29 05:25:36;;;;;;;48.53;25.55;;;6.50;99.90;;;;;;5096010;27;20039;-78
2022/03/29 05:28:03;;;;;;;50.60;26.48;;;6.50;99.90;;;;;;5108133;27;20046;-78
2022/03/29 05:30:29;;;;;;;44.67;24.63;;;;;;;;;;5093077;28;20059;-79
2022/03/29 05:32:57;;;;;;;41.25;24.73;;;;;;;;;;5093417;28;20104;-79
2022/03/29 05:35:30;;;;;;;47.63;24.75;;;6.70;99.90;;;;;;5109968;27;20040;-75
2022/03/29 05:37:57;;;;;;;48.88;24.40;;;6.70;99.90;;;;;;5092715;28;20063;-77
2022/03/29 05:40:24;;;;;;;49.03;24.35;;;;;;;;;;5090107;28;20059;-78
2022/03/29 05:42:52;;;;;;;49.47;24.95;;;;;;;;;;5083320;28;20048;-78
2022/03/29 05:45:18;;;;;;;51.05;25.83;;;6.60;99.90;;;;;;5103472;28;20052;-76
2022/03/29 05:50:29;;;;;;;50.37;24.57;;;5.90;99.90;;;;;;5106053;27;20058;-76
2022/03/29 05:52:56;;;;;;;53.83;25.75;;;6.60;99.90;;;;;;5106242;28;20044;-77
2022/03/29 05:55:22;;;;;;;51.13;25.75;;;5.80;99.90;;;;;;5107741;27;20094;-76
2022/03/29 05:57:49;;;;;;;46.60;25.38;;;6.70;99.90;;;;;;5114092;27;20040;-78
2022/03/29 06:00:17;;;;;;;47.75;25.10;;;6.80;99.90;;;;;;5109562;27;20040;-76
2022/03/29 06:02:43;;;;;;;51.80;25.27;;;6.70;99.90;;;;;;5105932;27;20558;-74
2022/03/29 06:05:09;;;;;;;57.40;25.45;;;6.60;99.90;;;;;;5102329;28;20040;-77
2022/03/29 06:07:35;;;;;;;56.25;25.10;;;6.80;99.90;;;;;;5089242;28;20083;-77
2022/03/29 06:10:03;;;;;;;55.17;25.98;;;6.70;99.90;;;;;;5084323;28;20459;-76
2022/03/29 06:12:30;;;;;;;53.95;25.83;;;6.70;99.90;;;;;;5085493;28;20090;-76
2022/03/29 06:14:56;;;;;;;49.33;26.10;;;6.70;99.90;;;;;;5103658;28;20071;-74
2022/03/29 06:17:22;;;;;;;48.85;24.73;;;;;;;;;;5105214;28;20466;-86
2022/03/29 06:19:48;;;;;;;45.58;24.83;;;6.70;99.90;;;;;;5091602;27;20158;-79
2022/03/29 06:22:13;;;;;;;41.72;24.23;;;6.60;99.90;;;;;;5110695;27;20194;-78
2022/03/29 06:24:40;;;;;;;46.35;25.17;;;6.70;99.90;;;;;;5091252;27;20104;-78
2022/03/29 06:27:06;;;;;;;45.28;24.67;;;6.70;99.90;;;;;;5090542;28;20047;-77
2022/03/29 06:29:34;;;;;;;45.38;25.50;;;7.00;99.90;;;;;;5107506;27;20077;-78
2022/03/29 06:32:00;;;;;;;55.83;25.60;;;6.70;99.90;;;;;;5092256;28;20032;-76
2022/03/29 06:34:26;;;;;;;55.47;25.48;;;6.70;99.90;;;;;;5093835;27;20077;-75
2022/03/29 06:36:52;;;;;;;48.40;25.58;;;7.10;99.90;;;;;;5101946;28;20075;-76
2022/03/29 06:39:18;;;;;;;51.35;25.80;;;6.70;99.90;;;;;;5107903;28;20047;-78
2022/03/29 06:41:44;;;;;;;58.45;27.10;;;7.30;99.90;;;;;;5090911;28;20034;-78
2022/03/29 06:44:10;;;;;;;54.22;26.23;;;6.80;99.90;;;;;;5088459;28;20082;-76
2022/03/29 06:46:39;;;;;;;59.85;27.27;;;6.80;99.90;;;;;;5085819;28;20511;-75
2022/03/29 06:49:06;;;;;;;43.22;25.83;;;6.80;99.90;;;;;;5096767;28;20047;-79
2022/03/29 06:51:38;;;;;;;48.53;26.38;;;6.90;99.90;;;;;;5100268;28;20056;-76
2022/03/29 06:54:09;;;;;;;46.38;25.33;;;6.90;99.90;;;;;;5098224;28;20353;-86
2022/03/29 06:56:35;;;;;;;54.60;26.25;;;6.90;99.90;;;;;;5103354;28;20126;-80
2022/03/29 06:59:01;;;;;;;51.95;26.15;;;6.80;99.90;;;;;;5101103;28;20050;-81
2022/03/29 07:01:27;;;;;;;49.85;26.23;;;6.90;99.90;;;;;;5102702;28;20066;-80
2022/03/29 07:03:57;;;;;;;52.92;25.58;;;6.90;99.90;;;;;;5086177;28;20034;-81
2022/03/29 07:06:23;;;;;;;47.53;25.52;;;7.30;99.90;;;;;;5092047;28;20151;-79
2022/03/29 07:11:45;;;;;;;54.03;25.25;;;7.00;99.90;;;;;;5028801;28;20061;-79
2022/03/29 07:14:12;;;;;;;46.33;24.85;;;7.00;99.90;;;;;;5011018;28;20669;-84
2022/03/29 07:16:39;;;;;;;46.47;23.98;;;7.00;99.90;;;;;;5030351;28;20076;-77
2022/03/29 07:19:09;;;;;;;50.25;24.73;;;7.00;99.90;;;;;;5045748;28;20378;-77
2022/03/29 07:21:37;;;;;;;54.45;24.02;;;7.10;99.90;;;;;;5012913;28;20102;-78
2022/03/29 07:24:04;;;;;;;43.78;24.55;;;7.10;99.90;;;;;;5016287;28;20047;-79
2022/03/29 07:26:30;;;;;;;49.13;26.23;;;7.10;99.90;;;;;;5013320;28;20090;-81
2022/03/29 07:28:56;;;;;;;53.80;24.83;;;7.40;99.90;;;;;;5026559;28;20140;-76
2022/03/29 07:31:22;;;;;;;48.90;25.15;;;7.30;99.90;;;;;;5029679;28;20080;-76
2022/03/29 07:33:48;;;;;;;54.78;26.30;;;7.40;99.90;;;;;;5012267;28;20048;-82
2022/03/29 07:36:14;;;;;;;55.13;25.85;;;7.60;99.90;;;;;;5027860;28;20076;-81
2022/03/29 07:38:39;;;;;;;43.88;25.23;;;7.60;99.90;;;;;;5029611;28;20036;-79
2022/03/29 07:41:05;;;;;;;55.20;26.02;;;7.70;99.90;;;;;;5028095;28;20092;-84
2022/03/29 07:43:31;;;;;;;50.00;24.98;;;7.70;99.90;;;;;;5027606;28;20128;-83
2022/03/29 07:45:57;;;;;;;47.47;24.55;;;7.80;99.90;;;;;;5014481;28;20068;-80
2022/03/29 07:48:23;;;;;;;46.28;20.67;;;8.00;99.90;;;;;;5063543;27;20036;-83
2022/03/29 07:50:49;;;;;;;48.17;23.95;;;8.90;99.90;;;;;;5091877;28;21702;-79
2022/03/29 07:53:15;;;;;;;60.03;24.75;;;8.40;99.90;;;;;;5103290;28;20043;-76
2022/03/29 07:55:41;;;;;;;46.03;23.15;;;8.40;99.90;;;;;;5110937;28;20031;-79
2022/03/29 07:58:07;;;;;;;47.95;23.98;;;8.50;99.90;;;;;;5109093;28;20032;-78
2022/03/29 08:00:33;;;;;;;42.67;23.50;;;8.60;99.90;;;;;;5104496;28;20478;-77
2022/03/29 08:03:13;;;;;;;48.35;22.85;;;8.70;99.90;;;;;;5109116;28;20040;-79
2022/03/29 08:05:43;;;;;;;42.50;22.65;;;8.70;99.90;;;;;;5108672;28;20044;-76
2022/03/29 08:08:14;;;;;;;43.28;22.48;;;8.70;99.90;;;;;;5092136;28;20050;-76
2022/03/29 08:10:41;;;;;;;43.65;22.50;;;8.60;99.90;;;;;;5108769;28;20429;-76
2022/03/29 08:13:08;;;;;;;45.88;22.63;;;8.70;99.90;;;;;;5091623;28;20042;-79
2022/03/29 08:15:35;;;;;;;46.80;22.08;;;8.70;99.90;;;;;;5108071;28;20051;-76
2022/03/29 08:18:01;;;;;;;36.53;20.10;;;8.60;99.90;;;;;;5108789;28;20059;-80
2022/03/29 08:20:29;;;;;;;45.30;21.48;;;8.60;99.90;;;;;;5108678;28;20467;-77
2022/03/29 08:22:59;;;;;;;42.10;20.23;;;8.60;99.90;;;;;;5085932;28;20032;-78
2022/03/29 08:25:25;;;;;;;41.63;20.27;;;8.60;99.90;;;;;;5091354;28;20519;-78
2022/03/29 08:27:51;;;;;;;43.95;20.33;;;8.40;99.90;;;;;;5107785;28;20039;-79
2022/03/29 08:30:17;;;;;;;43.10;20.13;;;8.60;99.90;;;;;;5091135;28;20059;-80
2022/03/29 08:32:43;;;;;;;42.33;20.30;;;8.60;99.90;;;;;;5108947;28;20048;-77
2022/03/29 08:35:12;;;;;;;35.58;19.67;;;8.70;99.90;;;;;;5108852;28;20067;-78
2022/03/29 08:37:39;;;;;;;42.20;20.10;;;8.70;99.90;;;;;;5080217;28;20364;-79
2022/03/29 08:40:14;;;;;;;42.15;20.80;;;8.50;99.90;;;;;;5101501;28;20095;-77
2022/03/29 08:42:46;;;;;;;44.78;20.10;;;8.60;99.90;;;;;;5106574;28;20043;-78
2022/03/29 08:45:16;;;;;;;44.53;20.77;;;8.80;99.90;;;;;;5085625;28;20043;-78
2022/03/29 08:47:44;;;;;;;41.47;18.30;;;8.90;99.90;;;;;;5099273;28;20086;-78
2022/03/29 08:50:12;;;;;;;41.38;16.65;;;8.90;99.90;;;;;;5108660;28;20039;-81
2022/03/29 08:52:39;;;;;;;35.47;13.23;;;8.90;99.90;;;;;;5109422;28;20035;-79
2022/03/29 08:55:06;;;;;;;33.92;12.45;;;8.70;99.90;;;;;;5090207;28;20134;-79
2022/03/29 08:57:32;;;;;;;44.28;13.15;;;8.70;99.90;;;;;;5108475;28;20048;-80
2022/03/29 08:59:59;;;;;;;26.45;10.93;;;8.70;99.90;;;;;;5089039;28;20043;-78
2022/03/29 09:02:25;;;;;;;35.45;12.18;;;8.50;99.90;;;;;;5110088;28;20393;-77
2022/03/29 09:05:12;;;;;;;35.95;12.55;;;8.60;99.90;;;;;;5107889;28;20067;-78
2022/03/29 09:08:00;;;;;;;26.92;10.15;;;8.70;99.90;;;;;;5108036;28;20055;-79
2022/03/29 09:10:50;;;;;;;39.55;11.98;;;8.80;99.90;;;;;;5094060;28;20743;-80
2022/03/29 09:13:24;;;;;;;28.70;11.27;;;8.80;99.90;;;;;;5094797;28;20126;-77
2022/03/29 09:15:52;;;;;;;31.13;11.63;;;8.80;99.90;;;;;;5096353;28;20104;-76
2022/03/29 09:18:18;;;;;;;37.78;11.93;;;8.80;99.90;;;;;;5108601;28;20332;-76
2022/03/29 09:20:47;;;;;;;31.95;10.68;;;9.10;99.90;;;;;;5111813;28;20036;-78
2022/03/29 09:23:18;;;;;;;34.78;12.00;;;9.20;99.90;;;;;;5111773;28;20458;-80
2022/03/29 09:25:49;;;;;;;37.38;12.23;;;9.40;99.90;;;;;;5112676;28;20416;-76
2022/03/29 09:28:17;;;;;;;31.13;10.40;;;9.50;99.90;;;;;;5079877;28;20451;-78
2022/03/29 09:30:51;;;;;;;33.80;11.57;;;9.60;99.90;;;;;;5112064;28;20130;-79
2022/03/29 09:33:31;;;;;;;37.38;11.98;;;9.70;99.90;;;;;;5112133;28;20039;-79
2022/03/29 09:36:07;;;;;;;27.33;10.77;;;9.90;99.90;;;;;;5109577;28;20035;-79
2022/03/29 09:38:39;;;;;;;33.88;11.40;;;9.80;99.90;;;;;;5075937;28;20036;-76
2022/03/29 09:41:26;;;;;;;30.85;11.55;;;9.70;99.90;;;;;;5111038;28;20044;-77
2022/03/29 09:44:21;;;;;;;27.80;10.55;;;9.70;99.90;;;;;;5110254;28;20045;-79
2022/03/29 09:47:02;;;;;;;33.05;11.15;;;10.00;99.90;;;;;;5110092;28;20397;-78
2022/03/29 09:49:28;;;;;;;34.67;10.43;;;10.00;99.90;;;;;;5111901;28;20044;-80
2022/03/29 09:52:15;;;;;;;29.75;11.75;;;10.30;99.90;;;;;;5113109;28;20154;-80
2022/03/29 09:54:42;;;;;;;37.05;11.35;;;10.10;99.90;;;;;;5111804;28;20268;-79
2022/03/29 09:57:09;;;;;;;31.27;9.35;;;10.40;99.90;;;;;;5110835;28;20043;-79
2022/03/29 09:59:47;;;;;;;37.45;10.05;;;10.50;99.90;;;;;;5095523;28;20124;-79
2022/03/29 10:02:13;;;;;;;28.35;9.90;;;10.10;99.90;;;;;;5111439;28;20074;-78
2022/03/29 10:04:40;;;;;;;36.17;10.45;;;10.20;99.90;;;;;;5111371;28;20087;-79
2022/03/29 10:07:09;;;;;;;28.85;9.60;;;10.10;99.90;;;;;;5112558;28;20038;-79
2022/03/29 10:09:38;;;;;;;31.92;10.60;;;10.00;99.90;;;;;;5111654;27;20046;-79
2022/03/29 10:12:23;;;;;;;34.03;10.10;;;10.60;99.90;;;;;;5109446;27;20039;-79
2022/03/29 10:14:50;;;;;;;27.15;9.57;;;10.00;99.90;;;;;;5095629;28;20042;-79
2022/03/29 10:17:17;;;;;;;32.70;9.70;;;9.90;99.90;;;;;;5095514;28;20047;-82
2022/03/29 10:19:47;;;;;;;29.77;10.00;;;10.20;99.90;;;;;;5089199;28;20119;-79
2022/03/29 10:22:13;;;;;;;29.15;9.07;;;9.80;99.90;;;;;;5106638;27;20040;-77
2022/03/29 10:24:39;;;;;;;30.73;9.85;;;9.90;99.90;;;;;;5106832;27;20052;-78
2022/03/29 10:27:07;;;;;;;34.35;9.57;;;9.90;99.90;;;;;;5088570;27;20055;-80
2022/03/29 10:29:35;;;;;;;28.48;9.07;;;9.70;99.90;;;;;;5088658;28;20054;-80
2022/03/29 10:32:06;;;;;;;33.40;9.63;;;9.80;99.90;;;;;;5107579;27;20038;-80
2022/03/29 10:34:37;;;;;;;31.00;9.10;;;9.80;99.90;;;;;;5107484;27;20110;-77
2022/03/29 10:37:07;;;;;;;38.38;10.00;;;9.90;99.90;;;;;;5107532;28;20071;-80
2022/03/29 10:39:56;;;;;;;25.30;9.75;;;9.90;99.90;;;;;;5091182;28;20043;-80
2022/03/29 10:42:37;;;;;;;31.60;9.63;;;10.10;99.90;;;;;;5105829;27;20043;-81
2022/03/29 10:45:09;;;;;;;28.08;9.30;;;10.20;99.90;;;;;;5089580;28;20039;-79
2022/03/29 10:47:36;;;;;;;24.27;9.95;;;10.20;99.90;;;;;;5107965;28;20081;-83
2022/03/29 10:50:05;;;;;;;31.50;8.13;;;10.30;99.90;;;;;;5106794;28;20051;-77
2022/03/29 10:52:42;;;;;;;31.92;8.93;;;10.40;99.90;;;;;;5105411;27;20044;-82
2022/03/29 10:55:21;;;;;;;33.80;7.97;;;10.50;99.90;;;;;;5088722;28;20044;-81
2022/03/29 10:58:05;;;;;;;24.83;8.15;;;10.50;99.90;;;;;;5102776;28;20431;-81
2022/03/29 11:00:31;;;;;;;27.13;8.48;;;10.60;99.90;;;;;;5089809;28;20387;-80
2022/03/29 11:03:20;;;;;;;20.52;7.50;;;10.90;99.90;;;;;;5108350;27;20120;-82
2022/03/29 11:06:10;;;;;;;28.77;8.00;;;10.90;99.90;;;;;;5118238;27;20043;-78
2022/03/29 11:08:41;;;;;;;26.00;7.72;;;10.70;99.90;;;;;;5109911;28;20048;-79
2022/03/29 11:11:28;;;;;;;23.25;7.00;;;10.80;99.90;;;;;;5109259;28;20055;-80
2022/03/29 11:13:53;;;;;;;24.40;7.72;;;10.80;99.90;;;;;;5104540;28;20058;-79
2022/03/29 11:16:25;;;;;;;31.02;7.47;;;11.20;99.90;;;;;;5109456;28;20047;-78
2022/03/29 11:18:52;;;;;;;25.48;7.93;;;11.10;99.90;;;;;;5100311;28;20113;-80
2022/03/29 11:21:34;;;;;;;29.02;8.23;;;11.00;99.90;;;;;;5102351;28;20036;-81
2022/03/29 11:24:02;;;;;;;24.73;7.70;;;11.10;99.90;;;;;;5084093;27;21401;-78
2022/03/29 11:26:28;;;;;;;32.28;8.63;;;11.30;99.90;;;;;;5102920;28;20043;-79
2022/03/29 11:28:56;;;;;;;29.65;8.25;;;11.10;99.90;;;;;;5105818;28;20051;-78
2022/03/29 11:31:25;;;;;;;30.42;7.85;;;11.20;99.90;;;;;;5086228;28;20092;-80
2022/03/29 11:33:54;;;;;;;28.33;8.65;;;10.80;99.90;;;;;;5105675;28;20370;-78
2022/03/29 11:36:20;;;;;;;24.88;8.13;;;10.70;99.90;;;;;;5105735;28;20059;-77
2022/03/29 11:38:47;;;;;;;27.88;8.82;;;10.80;99.90;;;;;;5107355;28;20054;-77
2022/03/29 11:41:27;;;;;;;22.73;7.43;;;10.70;99.90;;;;;;5088524;28;20410;-78
2022/03/29 11:43:56;;;;;;;24.48;7.57;;;10.60;99.90;;;;;;5106036;28;20048;-78
2022/03/29 11:46:22;;;;;;;27.45;8.25;;;10.40;99.90;;;;;;5106112;28;20068;-79
2022/03/29 11:48:50;;;;;;;26.55;7.78;;;10.20;99.90;;;;;;5105660;28;20522;-78
2022/03/29 11:51:16;;;;;;;27.85;8.40;;;10.10;99.90;;;;;;5105133;28;20040;-79
2022/03/29 11:53:43;;;;;;;22.70;8.60;;;10.10;99.90;;;;;;5103740;28;20096;-81
2022/03/29 11:56:14;;;;;;;27.38;8.20;;;10.00;99.90;;;;;;5103118;28;20036;-79
2022/03/29 11:58:45;;;;;;;24.20;8.18;;;9.70;99.90;;;;;;5075653;28;20055;-78
2022/03/29 12:01:27;;;;;;;29.08;8.52;;;9.70;99.90;;;;;;5096577;28;20049;-83
2022/03/29 12:03:59;;;;;;;25.20;8.32;;;9.90;99.90;;;;;;5081099;28;20052;-81
2022/03/29 12:06:27;;;;;;;26.33;8.32;;;9.90;99.90;;;;;;5087903;28;20448;-79
2022/03/29 12:09:08;;;;;;;22.67;8.55;;;10.20;99.90;;;;;;5101179;28;20039;-81
2022/03/29 12:11:39;;;;;;;26.58;8.77;;;10.10;99.90;;;;;;5087816;28;20304;-80
2022/03/29 12:14:08;;;;;;;27.95;8.85;;;10.40;99.90;;;;;;5085839;28;20154;-78
2022/03/29 12:16:39;;;;;;;26.75;8.48;;;10.10;99.90;;;;;;5089681;28;20141;-80
2022/03/29 12:19:10;;;;;;;25.48;8.63;;;10.30;99.90;;;;;;5103424;28;20044;-80
2022/03/29 12:21:37;;;;;;;30.45;8.50;;;10.40;99.90;;;;;;5088208;28;20043;-78
2022/03/29 12:24:07;;;;;;;29.15;9.50;;;10.70;99.90;;;;;;5082212;28;20055;-79
2022/03/29 12:26:43;;;;;;;28.40;7.78;;;10.70;99.90;;;;;;5098668;28;20498;-80
2022/03/29 12:29:13;;;;;;;34.78;7.97;;;10.60;99.90;;;;;;5105073;28;20052;-76
2022/03/29 12:31:40;;;;;;;34.20;8.32;;;10.50;99.90;;;;;;5111161;28;20058;-78
2022/03/29 12:34:07;;;;;;;35.88;9.18;;;10.90;99.90;;;;;;5101528;28;20100;-78
2022/03/29 12:36:32;;;;;;;28.75;8.20;;;11.10;99.90;;;;;;5112958;27;20494;-78
2022/03/29 12:39:05;;;;;;;22.23;7.50;;;10.90;99.90;;;;;;5118749;28;20043;-78
2022/03/29 12:41:47;;;;;;;35.13;8.20;;;11.00;99.90;;;;;;5119316;27;20078;-78
2022/03/29 12:44:16;;;;;;;25.63;8.70;;;11.00;99.90;;;;;;5123834;27;20355;-78
2022/03/29 12:46:44;;;;;;;24.98;8.20;;;10.80;99.90;;;;;;5121947;27;20039;-75
2022/03/29 12:49:10;;;;;;;22.65;8.80;;;10.70;99.90;;;;;;5105590;27;20047;-81
2022/03/29 12:51:40;;;;;;;27.08;8.77;;;10.90;99.90;;;;;;5095837;27;20059;-79